Avera, Georgia
Current Conditions -  °F | °C
As of 7:55 PM on Monday 22 Dec 2014 (Local Time) from KOKZ Reporting Station
Haze Haze  
Wind Chill: 42°   Ceiling: 300
Heat Index: 46°   Visibility: 1.5mi
Dew Point: 46°   Wind: 7mph
Humidity: 100%   Direction: 100°E
Pressure: 29.98"   Gusts: NA
Location:  33.19°N, 82.53°W
Report Text: KOKZ 230055Z AUTO 10006KT 1 1/2SM BR OVC003 08/08 A2998 RMK AO2 LTG DSNT S T00750075
Loading
Personal Weather Stations






























Interactive Weather Map New forecast layout! Learn more

10-Day Weather Forecast

Advertisements
Track Severe Weather on mobile